Time;durP1;ratioP1;P1;durP2;ratioP2;P2;SDS_P1;SDS_P2;PMS_P1;PMS_P2;Temp;Humidity;BMP_temperature;BMP_pressure;BME280_temperature;BME280_humidity;BME280_pressure;Samples;Min_cycle;Max_cycle;Signal;HPM_P1;HPM_P2
2022/08/12 00:44:23;;;;;;;;;;;23.80;66.90;;;;;;5054764;28;19920;-68
2022/08/12 00:46:53;;;;;;;;;;;23.80;67.10;;;;;;5054694;28;19912;-69
2022/08/12 00:49:22;;;;;;;;;;;23.80;67.10;;;;;;5057816;22;20306;-79
2022/08/12 00:52:05;;;;;;;;;;;23.80;67.20;;;;;;5034363;28;20007;-79
2022/08/12 00:54:36;;;;;;;;;;;23.70;67.60;;;;;;5016993;28;20289;-79
2022/08/12 00:57:07;;;;;;;;;;;23.70;67.70;;;;;;5034662;28;19919;-79
2022/08/12 00:59:33;;;;;;;;;;;23.70;67.90;;;;;;5034406;28;19939;-79
2022/08/12 01:02:00;;;;;;;;;;;23.70;67.80;;;;;;5016884;28;19914;-79
2022/08/12 01:12:41;;;;;;;;;;;23.60;68.40;;;;;;5034449;28;19963;-79
2022/08/12 01:15:08;;;;;;;;;;;23.50;68.70;;;;;;5034422;28;19920;-79
2022/08/12 01:17:34;;;;;;;;;;;23.40;69.00;;;;;;5034119;28;19912;-79
2022/08/12 01:20:03;;;;;;;;;;;23.40;69.20;;;;;;5034162;28;19959;-79
2022/08/12 01:22:35;;;;;;;;;;;23.40;69.30;;;;;;5034186;28;20421;-79
2022/08/12 01:25:17;;;;;;;;;;;23.30;69.30;;;;;;5034206;28;19917;-79
2022/08/12 01:27:43;;;;;;;;;;;23.30;69.40;;;;;;5034200;28;20320;-79
2022/08/12 01:30:10;;;;;;;;;;;23.20;69.60;;;;;;5034065;28;19939;-78
2022/08/12 01:32:37;;;;;;;;;;;23.20;69.90;;;;;;5034209;28;20039;-79
2022/08/12 01:35:06;;;;;;;;;;;23.20;69.90;;;;;;5033665;28;20012;-79
2022/08/12 01:37:41;;;;;;;;;;;23.20;70.00;;;;;;5033629;28;19919;-79
2022/08/12 01:40:08;;;;;;;;;;;23.10;70.20;;;;;;5016084;28;19955;-79
2022/08/12 01:42:47;;;;;;;;;;;23.10;70.40;;;;;;5034039;28;19917;-79
2022/08/12 01:45:14;;;;;;;;;;;23.00;70.60;;;;;;5033779;28;19913;-79
2022/08/12 01:47:41;;;;;;;;;;;23.00;70.70;;;;;;5033480;28;20322;-79
2022/08/12 01:50:07;;;;;;;;;;;23.00;70.60;;;;;;5033358;28;20051;-79
2022/08/12 01:52:35;;;;;;;;;;;23.00;70.70;;;;;;5033778;28;19960;-79
2022/08/12 01:55:05;;;;;;;;;;;23.00;70.70;;;;;;5033550;28;19917;-79
2022/08/12 01:58:00;;;;;;;;;;;23.00;71.00;;;;;;5033341;28;20286;-79
2022/08/12 02:00:34;;;;;;;;;;;23.00;71.10;;;;;;5023761;28;19913;-79
2022/08/12 02:03:11;;;;;;;;;;;22.90;71.10;;;;;;5033527;28;20011;-79
2022/08/12 02:11:42;;;;;;;;;;;22.90;71.20;;;;;;5033183;28;19979;-79
2022/08/12 02:14:19;;;;;;;;;;;22.90;71.40;;;;;;5033168;28;19913;-79
2022/08/12 02:16:48;;;;;;;;;;;22.80;71.50;;;;;;5032773;28;19913;-79
2022/08/12 02:19:28;;;;;;;;;;;22.80;71.70;;;;;;5032617;28;19913;-79
2022/08/12 02:22:02;;;;;;;;;;;22.70;71.90;;;;;;5032883;28;19959;-79
2022/08/12 02:24:31;;;;;;;;;;;22.70;72.10;;;;;;5032873;28;20309;-79
2022/08/12 02:26:58;;;;;;;;;;;22.60;72.20;;;;;;5032515;28;20004;-79
2022/08/12 02:29:24;;;;;;;;;;;22.60;72.40;;;;;;5032518;28;19913;-79
2022/08/12 02:31:51;;;;;;;;;;;22.50;72.60;;;;;;5014743;28;19913;-79
2022/08/12 02:34:17;;;;;;;;;;;22.50;73.00;;;;;;5032800;28;19913;-79
2022/08/12 02:36:43;;;;;;;;;;;22.40;73.10;;;;;;5032418;28;19913;-79
2022/08/12 02:39:12;;;;;;;;;;;22.40;73.30;;;;;;5032240;28;19913;-79
2022/08/12 02:41:41;;;;;;;;;;;22.30;73.50;;;;;;5032437;28;19913;-79
2022/08/12 02:44:07;;;;;;;;;;;22.30;73.70;;;;;;5032335;28;20316;-79
2022/08/12 02:46:33;;;;;;;;;;;22.20;73.90;;;;;;5031392;28;19913;-79
2022/08/12 02:49:18;;;;;;;;;;;22.20;74.20;;;;;;5032016;28;19920;-79
2022/08/12 02:51:44;;;;;;;;;;;22.10;74.40;;;;;;5032327;28;19956;-79
2022/08/12 02:54:10;;;;;;;;;;;22.10;74.60;;;;;;5032239;28;19913;-79
2022/08/12 02:56:39;;;;;;;;;;;22.10;75.00;;;;;;5032043;28;19967;-79
2022/08/12 02:59:06;;;;;;;;;;;22.10;75.10;;;;;;5031848;28;20393;-79
2022/08/12 03:01:32;;;;;;;;;;;22.10;75.20;;;;;;5032051;28;19963;-79
2022/08/12 03:04:04;;;;;;;;;;;22.10;75.30;;;;;;5014199;28;19920;-79
2022/08/12 03:06:56;;;;;;;;;;;22.00;75.40;;;;;;5031748;28;19913;-79
2022/08/12 03:09:23;;;;;;;;;;;21.90;75.70;;;;;;5029467;28;19921;-79
2022/08/12 03:11:48;;;;;;;;;;;21.90;75.90;;;;;;5031920;28;20019;-79
2022/08/12 03:14:16;;;;;;;;;;;21.80;76.00;;;;;;5031845;28;20004;-79
2022/08/12 03:16:43;;;;;;;;;;;21.80;76.10;;;;;;5031672;28;19921;-79
2022/08/12 03:19:09;;;;;;;;;;;21.80;76.20;;;;;;5031682;28;19913;-79
2022/08/12 03:21:37;;;;;;;;;;;21.70;76.50;;;;;;5013877;28;20444;-79
2022/08/12 03:24:04;;;;;;;;;;;21.70;76.50;;;;;;5031672;28;20274;-79
2022/08/12 03:26:32;;;;;;;;;;;21.80;76.60;;;;;;5031584;28;19956;-79
2022/08/12 03:29:00;;;;;;;;;;;21.80;76.60;;;;;;5031383;28;20571;-79
2022/08/12 03:31:31;;;;;;;;;;;21.80;76.50;;;;;;5031574;28;19920;-79
2022/08/12 03:34:06;;;;;;;;;;;21.70;76.40;;;;;;5031598;28;19974;-79
2022/08/12 03:36:33;;;;;;;;;;;21.70;76.50;;;;;;5031328;28;19921;-83
2022/08/12 03:39:45;;;;;;;;;;;21.70;76.70;;;;;;5030817;28;19966;-83
2022/08/12 03:41:57;;;;;;;;;;;21.60;76.80;;;;;;5016397;28;20730;-78
2022/08/12 05:02:27;;;;;;;6.75;4.32;;;21.70;79.40;;;;;;5149440;27;20113;-68
2022/08/12 05:04:56;;;;;;;7.72;4.45;;;21.60;79.20;;;;;;5149346;27;20106;-70
2022/08/12 05:07:22;;;;;;;8.02;4.38;;;21.60;79.20;;;;;;5148897;27;20386;-69
2022/08/12 05:09:48;;;;;;;9.88;4.22;;;21.60;79.00;;;;;;5148521;27;20031;-71
2022/08/12 05:12:18;;;;;;;6.82;4.07;;;21.60;79.20;;;;;;5148916;27;20499;-70
2022/08/12 05:14:45;;;;;;;7.57;4.05;;;21.60;78.60;;;;;;5148229;27;20031;-70
2022/08/12 05:17:11;;;;;;;8.23;4.20;;;21.60;78.50;;;;;;5148690;27;20132;-70
2022/08/12 05:19:37;;;;;;;9.15;4.22;;;21.60;78.50;;;;;;5146701;27;20126;-71
2022/08/12 05:22:03;;;;;;;7.70;4.30;;;21.60;78.60;;;;;;5146998;27;20714;-71
2022/08/12 05:24:29;;;;;;;9.77;4.07;;;21.70;78.60;;;;;;5146950;27;20378;-71
2022/08/12 05:26:55;;;;;;;9.10;4.20;;;21.70;78.50;;;;;;5147109;27;20056;-70
2022/08/12 05:29:21;;;;;;;9.85;4.22;;;21.70;78.50;;;;;;5146154;27;20051;-70
2022/08/12 05:31:48;;;;;;;10.55;4.25;;;21.70;78.60;;;;;;5146821;27;20031;-70
2022/08/12 05:34:14;;;;;;;7.88;4.18;;;21.70;79.30;;;;;;5146684;27;20499;-70
2022/08/12 05:36:42;;;;;;;10.43;4.75;;;21.80;78.60;;;;;;5147673;27;20063;-71
2022/08/12 05:39:09;;;;;;;7.97;3.95;;;21.80;78.60;;;;;;5148083;27;20399;-70
2022/08/12 05:41:35;;;;;;;9.60;5.05;;;21.80;78.80;;;;;;5148356;27;20035;-70
2022/08/12 05:44:09;;;;;;;13.73;5.97;;;21.80;78.70;;;;;;5147827;27;20110;-70
2022/08/12 05:46:36;;;;;;;10.82;4.68;;;21.80;78.40;;;;;;5148123;27;20027;-70
2022/08/12 05:49:03;;;;;;;9.70;4.50;;;21.90;78.30;;;;;;5147830;27;20389;-70
2022/08/12 05:51:34;;;;;;;9.35;4.40;;;21.90;78.50;;;;;;5148354;27;20035;-70
2022/08/12 05:54:01;;;;;;;13.52;4.97;;;21.90;78.70;;;;;;5146763;27;20023;-70
2022/08/12 05:56:33;;;;;;;10.05;4.75;;;22.00;78.30;;;;;;5148091;27;20034;-71
2022/08/12 05:59:00;;;;;;;11.18;4.40;;;22.10;78.30;;;;;;5146948;27;20484;-70
2022/08/12 06:01:27;;;;;;;9.05;4.53;;;22.00;78.20;;;;;;5147834;27;20027;-70
2022/08/12 06:03:54;;;;;;;11.20;5.35;;;22.10;78.20;;;;;;5147669;27;20050;-70
2022/08/12 06:06:21;;;;;;;11.20;5.13;;;22.10;78.00;;;;;;5148000;27;20023;-70
2022/08/12 06:08:54;;;;;;;11.57;4.80;;;22.20;78.20;;;;;;5147294;27;20111;-71
2022/08/12 06:11:22;;;;;;;9.38;4.63;;;22.20;78.20;;;;;;5146318;27;20033;-70
2022/08/12 06:13:48;;;;;;;12.32;5.07;;;22.20;78.20;;;;;;5133031;27;20028;-71
2022/08/12 06:16:17;;;;;;;11.43;4.80;;;22.30;77.70;;;;;;5132144;27;20130;-71
2022/08/12 06:18:43;;;;;;;10.85;4.78;;;22.40;77.30;;;;;;5133559;27;20050;-70
2022/08/12 06:21:13;;;;;;;11.52;5.15;;;22.40;77.10;;;;;;5123940;27;20027;-70
2022/08/12 06:23:39;;;;;;;13.90;5.60;;;22.40;76.80;;;;;;5133281;27;20383;-70
2022/08/12 06:26:10;;;;;;;9.82;5.13;;;22.40;76.80;;;;;;5133366;27;20016;-71
2022/08/12 06:28:39;;;;;;;10.55;5.47;;;22.50;76.80;;;;;;5132906;27;20463;-70
2022/08/12 06:31:06;;;;;;;8.73;4.88;;;22.50;76.80;;;;;;5133434;27;20035;-70
2022/08/12 06:33:33;;;;;;;8.52;4.90;;;22.60;76.60;;;;;;5133167;27;20051;-71
2022/08/12 06:36:00;;;;;;;9.95;4.78;;;22.60;76.10;;;;;;5132004;27;20038;-72
2022/08/12 06:38:27;;;;;;;9.40;4.65;;;22.60;75.90;;;;;;5133079;27;20426;-71
2022/08/12 06:43:40;;;;;;;6.88;4.13;;;22.70;76.20;;;;;;5132670;27;20061;-70
2022/08/12 06:46:07;;;;;;;9.57;4.68;;;22.80;75.90;;;;;;5132996;27;20019;-71
2022/08/12 06:48:34;;;;;;;6.70;3.95;;;22.80;75.70;;;;;;5131336;27;20020;-71
2022/08/12 06:51:02;;;;;;;7.07;4.05;;;22.90;75.90;;;;;;5132664;27;20027;-72
2022/08/12 06:53:31;;;;;;;7.45;4.13;;;22.90;75.80;;;;;;5132457;27;20162;-71
2022/08/12 06:56:00;;;;;;;13.77;5.03;;;22.90;76.10;;;;;;5132786;27;20038;-69
2022/08/12 06:58:26;;;;;;;;;;;23.00;77.00;;;;;;5132812;27;20023;-71
2022/08/12 07:00:54;;;;;;;8.50;4.97;;;23.00;82.90;;;;;;5132475;27;19911;-71
2022/08/12 07:03:24;;;;;;;9.10;5.13;;;23.00;84.80;;;;;;5132667;27;20035;-72
2022/08/12 07:05:51;;;;;;;9.60;4.78;;;23.00;85.80;;;;;;5132716;27;20027;-71
2022/08/12 07:08:17;;;;;;;8.75;4.07;;;23.00;85.60;;;;;;5132822;27;20027;-71
2022/08/12 07:10:56;;;;;;;5.32;4.20;;;22.90;87.30;;;;;;5131295;27;20039;-71
2022/08/12 07:13:23;;;;;;;5.30;4.10;;;22.90;86.90;;;;;;5132268;27;20031;-71
2022/08/12 07:15:55;;;;;;;5.23;4.03;;;22.90;88.80;;;;;;5132586;27;20031;-71
2022/08/12 07:18:28;;;;;;;7.60;4.80;;;22.90;90.20;;;;;;5132596;27;20026;-71
2022/08/12 07:20:53;;;;;;;7.18;4.68;;;22.90;90.40;;;;;;5131052;27;20043;-72
2022/08/12 07:23:19;;;;;;;7.88;5.05;;;22.90;90.60;;;;;;5131788;27;20365;-71
2022/08/12 07:25:45;;;;;;;7.45;4.97;;;22.90;90.00;;;;;;5131416;27;20025;-71
2022/08/12 07:28:22;;;;;;;7.50;4.60;;;23.00;89.50;;;;;;5131635;27;20035;-71
2022/08/12 07:30:50;;;;;;;7.63;4.20;;;23.00;90.10;;;;;;5131920;27;20050;-73
2022/08/12 07:33:21;;;;;;;5.20;3.83;;;23.00;89.20;;;;;;5130629;27;20034;-71
2022/08/12 07:35:49;;;;;;;7.57;3.80;;;23.00;87.70;;;;;;5131966;27;20042;-69
2022/08/12 07:38:24;;;;;;;6.00;3.92;;;23.00;88.60;;;;;;5131816;27;20041;-70
2022/08/12 07:40:52;;;;;;;7.40;3.97;;;23.10;88.10;;;;;;5131714;27;20104;-70
2022/08/12 07:43:18;;;;;;;6.43;3.80;;;23.10;89.30;;;;;;5131150;27;20088;-69
2022/08/12 07:45:44;;;;;;;7.40;3.92;;;23.10;89.60;;;;;;5131661;27;20042;-70
2022/08/12 07:48:10;;;;;;;6.43;3.58;;;23.10;89.70;;;;;;5130245;27;20054;-69
2022/08/12 07:50:36;;;;;;;6.20;3.70;;;23.10;90.00;;;;;;5131632;27;20039;-69
2022/08/12 07:53:02;;;;;;;10.98;4.45;;;23.10;91.00;;;;;;5131275;27;20027;-69
2022/08/12 07:55:28;;;;;;;10.80;5.25;;;23.10;90.00;;;;;;5131500;27;20471;-69
2022/08/12 07:57:58;;;;;;;8.85;4.28;;;23.10;91.20;;;;;;5130803;27;20042;-69
2022/08/12 08:00:26;;;;;;;6.55;4.20;;;23.10;90.70;;;;;;5131091;27;20582;-69
2022/08/12 08:02:53;;;;;;;7.63;4.05;;;23.10;90.70;;;;;;5131300;27;20027;-69
2022/08/12 08:05:24;;;;;;;5.75;3.80;;;23.00;87.60;;;;;;5131426;27;20102;-69
2022/08/12 08:07:52;;;;;;;5.10;3.70;;;23.10;90.30;;;;;;5130736;27;20034;-68
2022/08/12 08:10:19;;;;;;;4.93;3.40;;;23.00;91.20;;;;;;5130089;27;20118;-70
2022/08/12 08:12:54;;;;;;;5.28;3.60;;;23.00;90.90;;;;;;5129242;27;20023;-69
2022/08/12 08:15:38;;;;;;;5.82;3.30;;;23.00;91.30;;;;;;5130749;27;20467;-70
2022/08/12 08:18:09;;;;;;;8.65;3.08;;;23.00;90.00;;;;;;5127546;27;20031;-69
2022/08/12 08:20:44;;;;;;;7.03;3.53;;;23.10;85.40;;;;;;5129575;27;20157;-69
2022/08/12 08:23:16;;;;;;;7.25;4.32;;;23.20;87.40;;;;;;5129744;27;20107;-70
2022/08/12 08:25:44;;;;;;;7.10;3.60;;;23.10;88.60;;;;;;5129750;27;20499;-69
2022/08/12 08:28:12;;;;;;;4.85;3.45;;;23.20;83.90;;;;;;5121103;27;20027;-69
2022/08/12 08:30:43;;;;;;;14.38;3.80;;;23.30;87.90;;;;;;5129866;27;20182;-70
2022/08/12 08:33:10;;;;;;;5.72;3.72;;;23.30;87.00;;;;;;5129574;27;20349;-69
2022/08/12 08:35:41;;;;;;;5.23;3.97;;;23.30;88.40;;;;;;5129784;27;20109;-69
2022/08/12 08:38:12;;;;;;;6.75;3.78;;;23.30;88.00;;;;;;5129358;27;20030;-70
2022/08/12 08:43:25;;;;;;;6.55;3.47;;;23.30;91.70;;;;;;5127121;27;20128;-71
2022/08/12 08:45:51;;;;;;;5.63;2.92;;;23.30;90.00;;;;;;5128601;27;20067;-70
2022/08/12 08:48:17;;;;;;;6.05;3.15;;;23.30;90.10;;;;;;5130152;27;20078;-70
2022/08/12 08:50:44;;;;;;;4.95;3.00;;;23.30;90.40;;;;;;5128839;27;20035;-70
2022/08/12 08:53:11;;;;;;;7.30;3.20;;;23.30;91.10;;;;;;5130355;27;20115;-70
2022/08/12 08:55:39;;;;;;;3.13;2.65;;;23.30;90.80;;;;;;5130078;27;20031;-70
2022/08/12 08:58:07;;;;;;;10.50;3.55;;;23.30;87.20;;;;;;5129336;27;20106;-70
2022/08/12 09:00:36;;;;;;;4.75;2.67;;;23.30;89.60;;;;;;5130238;27;20395;-69
2022/08/12 09:03:03;;;;;;;8.90;3.92;;;23.30;85.00;;;;;;5130134;28;20495;-70
2022/08/12 09:05:29;;;;;;;6.22;3.45;;;23.40;88.30;;;;;;5130561;28;20023;-70
2022/08/12 09:07:58;;;;;;;6.32;3.45;;;23.40;88.20;;;;;;5130327;28;20028;-70
2022/08/12 09:10:24;;;;;;;8.65;3.45;;;23.40;89.90;;;;;;5130189;27;20031;-69
2022/08/12 09:15:35;;;;;;;6.85;3.60;;;23.60;77.00;;;;;;5130614;27;20023;-70
2022/08/12 09:18:05;;;;;;;6.38;2.88;;;23.60;78.20;;;;;;5130282;27;20034;-69
2022/08/12 09:20:33;;;;;;;3.80;3.00;;;23.70;83.10;;;;;;5128714;28;20099;-70
2022/08/12 09:23:00;;;;;;;3.67;2.57;;;23.70;79.20;;;;;;5130050;27;20054;-70
2022/08/12 09:25:34;;;;;;;5.15;2.90;;;23.80;77.70;;;;;;5130334;27;20042;-70
2022/08/12 09:28:01;;;;;;;5.00;2.83;;;23.80;83.80;;;;;;5129511;27;20084;-70
2022/08/12 09:30:29;;;;;;;3.67;2.60;;;23.80;81.20;;;;;;5130046;27;20061;-69
2022/08/12 09:32:56;;;;;;;5.75;2.80;;;23.80;80.00;;;;;;5129828;28;20191;-69
2022/08/12 09:35:30;;;;;;;5.63;2.80;;;23.80;77.90;;;;;;5130423;28;20027;-69
2022/08/12 09:37:56;;;;;;;3.40;2.60;;;23.90;71.80;;;;;;5129735;28;20052;-70
2022/08/12 09:40:23;;;;;;;4.90;3.05;;;24.00;73.60;;;;;;5129769;27;20479;-69
2022/08/12 09:45:34;;;;;;;4.63;2.75;;;24.10;71.70;;;;;;5148994;27;20405;-69
2022/08/12 09:48:05;;;;;;;5.90;2.53;;;24.10;78.20;;;;;;5150734;27;20030;-69
2022/08/12 09:50:32;;;;;;;4.32;2.67;;;24.20;74.10;;;;;;5154379;27;20586;-70
2022/08/12 09:53:12;;;;;;;6.57;2.70;;;24.20;77.20;;;;;;5154579;27;20022;-69
2022/08/12 09:55:47;;;;;;;3.40;2.65;;;24.10;76.60;;;;;;5154069;27;20487;-70
2022/08/12 09:58:15;;;;;;;4.53;2.90;;;24.10;75.40;;;;;;5153512;27;20028;-70
2022/08/12 10:00:45;;;;;;;5.05;3.03;;;24.20;77.80;;;;;;5137871;27;20571;-70
2022/08/12 10:03:14;;;;;;;6.32;3.45;;;24.10;76.10;;;;;;5133040;27;20091;-67
2022/08/12 10:05:42;;;;;;;4.63;2.80;;;24.20;73.30;;;;;;5132011;27;20038;-68
2022/08/12 10:08:10;;;;;;;6.22;3.00;;;24.30;69.20;;;;;;5132964;27;20039;-70
2022/08/12 10:13:40;;;;;;;6.05;3.25;;;24.40;73.60;;;;;;5133312;27;20023;-69
2022/08/12 10:13:43;;;;;;;5.93;2.60;;;24.50;66.70;;;;;;5132687;27;20034;-68
2022/08/12 10:16:11;;;;;;;5.47;2.70;;;24.70;66.50;;;;;;5133409;27;20375;-69
2022/08/12 10:18:42;;;;;;;;;;;24.80;63.80;;;;;;5133417;27;20019;-71
2022/08/12 10:21:38;;;;;;;3.65;2.40;;;24.90;64.40;;;;;;5133194;27;20031;-70
2022/08/12 10:24:13;;;;;;;6.05;2.92;;;25.00;62.80;;;;;;5132917;27;20561;-70
2022/08/12 10:29:35;;;;;;;7.43;3.22;;;25.00;64.90;;;;;;5132599;27;20038;-71
2022/08/12 10:32:02;;;;;;;3.70;2.70;;;25.10;61.90;;;;;;5133355;27;20057;-72
2022/08/12 10:34:29;;;;;;;8.38;3.00;;;25.20;64.30;;;;;;5133873;27;20171;-72
2022/08/12 10:36:57;;;;;;;5.55;3.10;;;25.10;65.40;;;;;;5133357;27;20118;-71
2022/08/12 10:39:26;;;;;;;7.88;2.90;;;25.20;63.10;;;;;;5131832;27;20035;-71
2022/08/12 10:44:36;;;;;;;6.72;3.20;;;25.20;62.40;;;;;;5133127;27;20333;-72
2022/08/12 10:47:03;;;;;;;4.30;2.92;;;25.30;62.30;;;;;;5133524;27;20106;-72
2022/08/12 10:49:33;;;;;;;6.10;3.22;;;25.50;61.80;;;;;;5133171;27;20077;-71
2022/08/12 10:52:01;;;;;;;4.88;2.67;;;25.50;61.20;;;;;;5133551;27;20031;-72
2022/08/12 10:54:27;;;;;;;5.13;2.63;;;25.60;61.50;;;;;;5133098;27;20163;-71
2022/08/12 10:56:56;;;;;;;4.72;2.97;;;25.50;65.50;;;;;;5132740;27;20038;-71
2022/08/12 10:59:28;;;;;;;6.80;2.80;;;25.40;63.30;;;;;;5132099;27;20111;-71
2022/08/12 11:01:55;;;;;;;5.35;2.92;;;25.40;62.40;;;;;;5132769;27;20034;-72
2022/08/12 11:04:22;;;;;;;4.57;3.25;;;25.40;62.20;;;;;;5130885;27;20345;-72
2022/08/12 11:06:52;;;;;;;5.35;3.33;;;25.50;61.60;;;;;;5132137;27;20506;-72
2022/08/12 11:09:23;;;;;;;5.40;3.20;;;25.50;61.70;;;;;;5130713;27;20038;-71
2022/08/12 11:11:49;;;;;;;5.50;3.40;;;25.50;60.80;;;;;;5132801;27;20481;-72
2022/08/12 11:14:17;;;;;;;4.22;3.15;;;25.60;61.60;;;;;;5132155;27;20106;-68
2022/08/12 11:16:46;;;;;;;4.55;2.70;;;25.50;62.10;;;;;;5131165;27;20027;-71
2022/08/12 11:19:12;;;;;;;5.32;2.58;;;25.60;59.60;;;;;;5131404;27;20030;-71
2022/08/12 11:21:38;;;;;;;3.97;2.90;;;25.70;60.00;;;;;;5132240;27;20071;-71
2022/08/12 11:24:05;;;;;;;4.18;2.70;;;25.70;62.10;;;;;;5131433;27;20464;-70
2022/08/12 11:26:32;;;;;;;3.85;2.53;;;25.70;60.50;;;;;;5126273;27;20024;-71
2022/08/12 11:28:58;;;;;;;5.55;2.33;;;25.70;61.80;;;;;;5119719;27;20091;-71
2022/08/12 11:31:23;;;;;;;4.10;2.70;;;25.80;60.90;;;;;;5132297;27;20031;-71
2022/08/12 11:33:49;;;;;;;5.18;2.40;;;25.70;61.30;;;;;;5131956;27;20486;-71
2022/08/12 11:36:16;;;;;;;3.70;2.22;;;25.60;61.80;;;;;;5132149;27;20035;-71
2022/08/12 11:38:43;;;;;;;4.47;2.60;;;25.60;61.30;;;;;;5131198;27;20162;-71
2022/08/12 11:41:09;;;;;;;5.03;2.63;;;25.70;59.90;;;;;;5131965;27;20562;-71
2022/08/12 11:43:35;;;;;;;5.55;2.90;;;25.70;59.90;;;;;;5130219;27;20098;-71
2022/08/12 11:46:01;;;;;;;6.20;3.05;;;25.80;58.80;;;;;;5130497;27;20027;-71
2022/08/12 11:48:27;;;;;;;4.25;2.80;;;25.90;60.40;;;;;;5131236;27;20027;-71
2022/08/12 11:50:54;;;;;;;4.88;2.55;;;25.80;60.80;;;;;;5131563;27;20080;-71
2022/08/12 11:53:20;;;;;;;4.35;2.80;;;25.80;61.70;;;;;;5131474;27;20073;-71
2022/08/12 11:55:46;;;;;;;5.60;2.70;;;25.70;62.70;;;;;;5130313;27;20472;-71
2022/08/12 11:58:12;;;;;;;3.08;2.40;;;25.70;60.30;;;;;;5129445;27;20033;-71
2022/08/12 12:00:38;;;;;;;3.45;2.30;;;25.70;60.60;;;;;;5131336;27;20118;-76
2022/08/12 12:03:03;;;;;;;4.80;2.40;;;25.70;60.90;;;;;;5131518;27;20516;-70
2022/08/12 12:05:29;;;;;;;3.28;2.10;;;25.70;62.50;;;;;;5131761;27;20356;-70
2022/08/12 12:07:55;;;;;;;5.20;2.15;;;25.70;63.20;;;;;;5131168;27;20076;-71
2022/08/12 12:10:21;;;;;;;3.00;2.25;;;25.80;60.40;;;;;;5130574;27;20031;-71
2022/08/12 12:12:47;;;;;;;5.25;2.60;;;25.90;60.40;;;;;;5131066;27;20022;-71
2022/08/12 12:15:13;;;;;;;3.47;2.42;;;25.90;60.60;;;;;;5131580;27;20067;-71
2022/08/12 12:17:41;;;;;;;4.32;2.67;;;25.90;62.00;;;;;;5130000;27;20015;-71
2022/08/12 12:20:09;;;;;;;4.13;2.30;;;25.80;61.80;;;;;;5130760;27;20489;-71
2022/08/12 12:22:40;;;;;;;4.15;2.40;;;25.90;60.90;;;;;;5130919;27;20387;-71
2022/08/12 12:25:07;;;;;;;4.15;2.83;;;25.90;62.70;;;;;;5130267;27;20022;-71
2022/08/12 12:27:50;;;;;;;4.88;2.90;;;26.00;60.30;;;;;;5129509;27;20378;-71
2022/08/12 12:30:16;;;;;;;4.47;3.20;;;26.10;59.60;;;;;;5130036;27;20539;-72
2022/08/12 12:32:43;;;;;;;11.05;2.50;;;26.20;59.50;;;;;;5128983;27;20027;-73
2022/08/12 12:35:09;;;;;;;4.43;3.03;;;26.30;59.60;;;;;;5130518;27;20106;-71
2022/08/12 12:37:50;;;;;;;4.05;2.60;;;26.40;58.90;;;;;;5131083;27;20385;-71
2022/08/12 12:40:16;;;;;;;3.88;2.45;;;26.30;59.00;;;;;;5130480;27;20498;-71
2022/08/12 12:42:42;;;;;;;3.55;2.13;;;26.30;58.60;;;;;;5130672;27;20024;-71
2022/08/12 12:45:08;;;;;;;4.22;2.90;;;26.30;58.40;;;;;;5130751;27;20216;-71
2022/08/12 12:47:34;;;;;;;5.32;2.40;;;26.40;57.40;;;;;;5130474;27;20045;-71
2022/08/12 12:50:00;;;;;;;5.60;2.80;;;26.50;56.20;;;;;;5125413;22;20121;-68
2022/08/12 12:52:26;;;;;;;3.55;2.47;;;26.40;57.80;;;;;;5071737;28;20048;-68
2022/08/12 12:54:54;;;;;;;4.20;2.83;;;26.50;57.10;;;;;;5070537;28;20029;-68
2022/08/12 12:57:21;;;;;;;4.63;2.20;;;26.50;57.70;;;;;;5070176;28;20035;-72
2022/08/12 13:00:13;;;;;;;7.18;2.85;;;26.50;57.20;;;;;;5069640;28;20483;-69
2022/08/12 13:02:33;;;;;;;5.53;2.80;;;26.60;57.10;;;;;;5070686;28;20439;-68
2022/08/12 13:04:59;;;;;;;4.93;2.10;;;26.50;57.70;;;;;;5070048;28;20531;-69
2022/08/12 13:07:25;;;;;;;5.93;2.72;;;26.60;56.00;;;;;;5069653;28;20032;-69
2022/08/12 13:09:51;;;;;;;4.05;2.30;;;26.70;54.60;;;;;;5069691;28;20028;-69
2022/08/12 13:12:17;;;;;;;4.85;2.58;;;26.70;55.20;;;;;;5068022;28;20028;-69
2022/08/12 13:14:42;;;;;;;5.05;2.75;;;26.80;55.50;;;;;;5068524;28;20351;-69
2022/08/12 13:17:11;;;;;;;4.32;2.38;;;26.70;56.30;;;;;;5056988;28;20029;-69
2022/08/12 13:19:37;;;;;;;4.72;2.70;;;26.70;57.00;;;;;;5049261;28;20128;-69
2022/08/12 13:22:16;;;;;;;5.10;3.17;;;26.60;56.90;;;;;;5059414;28;20536;-68
2022/08/12 13:24:43;;;;;;;6.13;2.90;;;26.60;57.00;;;;;;5073133;28;20020;-69
2022/08/12 13:27:09;;;;;;;6.22;2.53;;;26.70;56.40;;;;;;5072843;28;20078;-67
2022/08/12 13:29:37;;;;;;;4.53;2.47;;;26.70;56.50;;;;;;5057517;28;20032;-66
2022/08/12 13:32:04;;;;;;;3.78;2.65;;;26.70;56.60;;;;;;5064586;28;20029;-67
2022/08/12 13:34:33;;;;;;;5.57;2.50;;;26.70;57.50;;;;;;5074138;28;20036;-66
2022/08/12 13:36:59;;;;;;;4.68;2.25;;;26.70;56.40;;;;;;5073328;28;20663;-66
2022/08/12 13:39:25;;;;;;;2.95;2.15;;;26.90;56.20;;;;;;5073598;28;20090;-67
2022/08/12 13:41:50;;;;;;;3.47;2.22;;;26.90;56.70;;;;;;5063834;28;20025;-67
2022/08/12 13:44:17;;;;;;;6.70;2.72;;;26.80;59.00;;;;;;5065015;28;20558;-67
2022/08/12 13:46:42;;;;;;;6.38;2.63;;;26.80;55.60;;;;;;5072863;28;20457;-67
2022/08/12 13:49:10;;;;;;;3.80;1.90;;;26.90;56.60;;;;;;5073126;28;20059;-67
2022/08/12 13:51:36;;;;;;;4.40;2.40;;;27.00;55.10;;;;;;5071971;28;20040;-67
2022/08/12 13:54:06;;;;;;;9.23;2.13;;;27.10;55.20;;;;;;5072601;28;20036;-67
2022/08/12 13:56:33;;;;;;;4.28;2.20;;;27.20;54.40;;;;;;5072958;28;20082;-66
2022/08/12 13:59:00;;;;;;;5.90;2.40;;;27.20;55.30;;;;;;5072419;28;20168;-65
2022/08/12 14:01:27;;;;;;;4.47;2.40;;;27.10;55.30;;;;;;5065896;28;20424;-66
2022/08/12 14:03:53;;;;;;;6.18;1.80;;;27.10;56.10;;;;;;5051326;28;20104;-66
2022/08/12 14:06:20;;;;;;;3.42;1.98;;;27.10;54.20;;;;;;5052892;28;20079;-65
2022/08/12 14:08:50;;;;;;;3.15;2.10;;;27.20;53.60;;;;;;5051784;28;20070;-69
2022/08/12 14:11:17;;;;;;;5.53;3.13;;;27.30;59.50;;;;;;5050405;28;20044;-67
2022/08/12 14:13:43;;;;;;;5.85;2.63;;;27.30;60.70;;;;;;5052910;28;20037;-67
2022/08/12 14:16:12;;;;;;;3.80;2.65;;;27.40;56.40;;;;;;5053211;28;20070;-67
2022/08/12 14:18:38;;;;;;;3.90;2.33;;;27.50;58.60;;;;;;5054143;28;20029;-67
2022/08/12 14:21:11;;;;;;;4.28;2.40;;;27.60;56.50;;;;;;5053579;28;20104;-67
2022/08/12 14:23:41;;;;;;;5.75;3.70;;;27.90;54.70;;;;;;5052850;28;20025;-67
2022/08/12 14:26:11;;;;;;;4.65;2.70;;;28.20;53.60;;;;;;5053090;28;20024;-67
2022/08/12 14:28:39;;;;;;;3.47;2.13;;;28.40;52.70;;;;;;5050821;28;20025;-67
2022/08/12 14:31:07;;;;;;;4.47;2.55;;;28.60;51.50;;;;;;5051747;28;20430;-67
2022/08/12 14:33:36;;;;;;;3.55;2.40;;;28.90;51.30;;;;;;5050732;28;20151;-67
2022/08/12 14:36:06;;;;;;;4.43;3.22;;;29.20;51.10;;;;;;5051563;28;20033;-67
2022/08/12 14:38:38;;;;;;;4.18;2.30;;;29.40;51.20;;;;;;5051143;28;20029;-67
2022/08/12 14:41:20;;;;;;;4.03;2.28;;;29.80;50.70;;;;;;5049877;28;20033;-67
2022/08/12 14:43:49;;;;;;;6.25;2.35;;;30.10;50.40;;;;;;5051360;28;20056;-67
2022/08/12 14:46:18;;;;;;;4.18;2.55;;;30.50;50.00;;;;;;5053285;28;20078;-67
2022/08/12 14:48:45;;;;;;;;;;;31.00;48.90;;;;;;5053182;28;20033;-67
2022/08/12 14:51:12;;;;;;;4.47;2.30;;;31.60;48.50;;;;;;5053122;28;19913;-67
2022/08/12 14:53:40;;;;;;;5.50;2.50;;;32.00;48.60;;;;;;5051502;28;20037;-67
2022/08/12 14:56:10;;;;;;;4.28;2.10;;;32.20;47.60;;;;;;5053320;28;20025;-67
2022/08/12 15:01:37;;;;;;;6.65;3.08;;;32.30;47.50;;;;;;5052120;28;20033;-67
2022/08/12 15:01:40;;;;;;;5.10;2.67;;;32.40;47.30;;;;;;5053129;28;20025;-67
2022/08/12 15:04:09;;;;;;;6.85;2.53;;;32.30;47.30;;;;;;5052269;28;20040;-67
2022/08/12 15:06:36;;;;;;;4.72;1.90;;;32.30;47.70;;;;;;5052237;28;20087;-67
2022/08/12 15:09:03;;;;;;;5.13;2.53;;;32.30;46.90;;;;;;5051870;28;20536;-67
2022/08/12 15:11:29;;;;;;;5.20;2.85;;;32.30;47.20;;;;;;5052353;28;20029;-67
2022/08/12 15:13:55;;;;;;;5.70;2.83;;;32.30;47.30;;;;;;5051949;28;20154;-67
2022/08/12 15:16:21;;;;;;;4.78;2.13;;;32.20;47.90;;;;;;5052035;28;20473;-67
2022/08/12 15:18:47;;;;;;;7.00;2.50;;;32.40;47.00;;;;;;5051358;28;20021;-67
2022/08/12 15:21:13;;;;;;;3.42;2.10;;;32.30;46.90;;;;;;5051990;28;20495;-67
2022/08/12 15:23:39;;;;;;;3.10;2.05;;;32.20;47.20;;;;;;5051494;28;20025;-66
2022/08/12 15:26:11;;;;;;;5.35;2.42;;;32.10;47.00;;;;;;5051722;28;20064;-67
2022/08/12 15:28:40;;;;;;;5.72;1.90;;;32.10;47.60;;;;;;5051093;28;20029;-66
2022/08/12 15:31:17;;;;;;;6.78;2.35;;;32.00;47.40;;;;;;5050685;28;20460;-67
2022/08/12 15:33:44;;;;;;;5.05;1.80;;;31.90;47.60;;;;;;5051942;28;20068;-67
2022/08/12 15:36:15;;;;;;;5.03;2.03;;;31.80;48.00;;;;;;5051636;28;20035;-68
2022/08/12 15:38:41;;;;;;;4.72;2.03;;;31.70;48.30;;;;;;5051320;28;20452;-67
2022/08/12 15:41:11;;;;;;;5.55;2.83;;;31.50;48.30;;;;;;5050445;28;20449;-67
2022/08/12 15:43:37;;;;;;;4.80;2.38;;;31.40;48.70;;;;;;5051080;28;20021;-67
2022/08/12 15:46:05;;;;;;;5.65;2.20;;;31.30;48.70;;;;;;5050664;28;20078;-68